Singac, New Jersey
Current Conditions -  °F | °C
As of 4:21 PM on Friday 19 Dec 2014 (Local Time) from KCDW Reporting Station
Overcast Overcast  
Wind Chill: 24°   Ceiling: 3000
Heat Index: 32°   Visibility: 10mi
Dew Point: 20°   Wind: 10mph
Humidity: 61%   Direction: 310°NW
Pressure: 30.09"   Gusts: NA
Location:  40.8835°N, 74.2057°W
Report Text: KCDW 192121Z 31009KT 10SM OVC030 00/M07 A3009 RMK AO2 T00001067
Loading
Personal Weather Stations






























Interactive Weather Map New forecast layout! Learn more

10-Day Weather Forecast

Advertisements
Track Severe Weather on mobile